Time;durP1;ratioP1;P1;durP2;ratioP2;P2;SDS_P1;SDS_P2;PMS_P1;PMS_P2;Temp;Humidity;BMP_temperature;BMP_pressure;BME280_temperature;BME280_humidity;BME280_pressure;Samples;Min_cycle;Max_cycle;Signal;HPM_P1;HPM_P2
2021/09/18 00:01:03;;;;;;;15.87;7.67;;;;;;;-145.18;100.00;60484.78;5018627;28;20487;-75
2021/09/18 00:03:32;;;;;;;18.57;7.77;;;;;;;-145.18;100.00;60484.78;5018251;28;20033;-75
2021/09/18 00:05:57;;;;;;;12.37;7.10;;;;;;;-145.18;100.00;60484.78;5019537;28;20274;-75
2021/09/18 00:08:23;;;;;;;13.47;6.97;;;;;;;-145.18;100.00;60484.78;5018772;28;20040;-74
2021/09/18 00:10:48;;;;;;;12.20;5.93;;;;;;;-145.18;100.00;60484.78;5011999;28;20037;-74
2021/09/18 00:13:14;;;;;;;11.60;6.23;;;;;;;-145.18;100.00;60484.78;5019030;28;20353;-75
2021/09/18 00:15:40;;;;;;;13.37;6.37;;;;;;;-145.18;100.00;60484.78;5018909;28;20112;-75
2021/09/18 00:18:05;;;;;;;15.13;7.43;;;;;;;-145.18;100.00;60484.78;5018469;28;20029;-74
2021/09/18 00:20:31;;;;;;;15.73;8.20;;;;;;;-145.18;100.00;60484.78;5018677;28;20104;-74
2021/09/18 00:22:57;;;;;;;17.33;8.53;;;;;;;-145.18;100.00;60484.78;5018367;28;20037;-75
2021/09/18 00:25:23;;;;;;;16.33;7.70;;;;;;;-145.18;100.00;60484.78;5019388;28;20468;-74
2021/09/18 00:27:48;;;;;;;17.33;8.20;;;;;;;-145.18;100.00;60484.78;5018985;28;20036;-74
2021/09/18 00:30:14;;;;;;;17.73;5.80;;;;;;;-145.18;100.00;60484.78;5018831;28;20156;-74
2021/09/18 00:32:39;;;;;;;15.23;6.37;;;;;;;-145.18;100.00;60484.78;5018825;28;20476;-74
2021/09/18 00:35:06;;;;;;;15.67;8.00;;;;;;;-145.18;100.00;60484.78;5018445;28;20037;-74
2021/09/18 00:37:31;;;;;;;17.80;8.30;;;;;;;-145.18;100.00;60484.78;5018555;28;20233;-74
2021/09/18 00:39:57;;;;;;;17.20;8.27;;;;;;;-145.18;100.00;60484.78;5018928;28;20383;-74
2021/09/18 00:42:22;;;;;;;17.10;8.10;;;;;;;-145.18;100.00;60484.78;5018795;28;20048;-75
2021/09/18 00:44:50;;;;;;;15.33;7.53;;;;;;;-145.18;100.00;60484.78;5018497;28;20055;-74
2021/09/18 00:47:16;;;;;;;15.57;7.67;;;;;;;-145.18;100.00;60484.78;5018325;28;20117;-74
2021/09/18 00:49:41;;;;;;;16.77;7.97;;;;;;;-145.18;100.00;60484.78;5018758;28;20656;-74
2021/09/18 00:52:07;;;;;;;16.67;8.07;;;;;;;-145.18;100.00;60484.78;5018328;28;20037;-74
2021/09/18 00:54:32;;;;;;;19.17;8.23;;;;;;;-145.18;100.00;60484.78;5018444;28;20121;-75
2021/09/18 00:56:59;;;;;;;14.97;7.23;;;;;;;-145.18;100.00;60484.78;5018175;28;20435;-74
2021/09/18 00:59:24;;;;;;;14.70;6.53;;;;;;;-145.18;100.00;60484.78;5018399;28;20190;-75
2021/09/18 01:01:51;;;;;;;15.93;8.03;;;;;;;-145.18;100.00;60484.78;5017327;28;20326;-75
2021/09/18 01:04:17;;;;;;;15.87;7.40;;;;;;;-145.18;100.00;60484.78;5016724;28;20212;-75
2021/09/18 01:06:42;;;;;;;17.47;8.27;;;;;;;-145.18;100.00;60484.78;5018454;28;20040;-75
2021/09/18 01:09:08;;;;;;;14.73;7.23;;;;;;;-145.18;100.00;60484.78;5014250;28;20160;-75
2021/09/18 01:11:34;;;;;;;15.50;7.63;;;;;;;-145.18;100.00;60484.78;5015771;28;20029;-75
2021/09/18 01:14:00;;;;;;;14.90;7.43;;;;;;;-145.18;100.00;60484.78;5020967;28;20025;-75
2021/09/18 01:16:25;;;;;;;15.77;7.47;;;;;;;-145.18;100.00;60484.78;5021914;28;20029;-75
2021/09/18 01:18:51;;;;;;;17.07;7.33;;;;;;;-145.18;100.00;60484.78;5022257;28;20026;-75
2021/09/18 01:21:17;;;;;;;15.80;7.67;;;;;;;-145.18;100.00;60484.78;5022744;28;20025;-75
2021/09/18 01:23:43;;;;;;;16.23;7.83;;;;;;;-145.18;100.00;60484.78;5021851;28;20308;-75
2021/09/18 01:26:09;;;;;;;17.57;8.73;;;;;;;-145.18;100.00;60484.78;5020349;28;20297;-74
2021/09/18 01:28:40;;;;;;;23.90;9.40;;;;;;;-145.18;100.00;60484.78;5021674;28;20498;-75
2021/09/18 01:31:06;;;;;;;19.40;9.43;;;;;;;-145.18;100.00;60484.78;5022092;28;20598;-75
2021/09/18 01:33:32;;;;;;;20.23;8.53;;;;;;;-145.18;100.00;60484.78;5019186;28;20040;-75
2021/09/18 01:35:57;;;;;;;18.00;8.50;;;;;;;-145.18;100.00;60484.78;5021361;28;20265;-75
2021/09/18 01:38:23;;;;;;;18.87;9.07;;;;;;;-145.18;100.00;60484.78;5021958;28;20021;-75
2021/09/18 01:40:48;;;;;;;20.30;10.10;;;;;;;-145.18;100.00;60484.78;5021693;28;20163;-75
2021/09/18 01:43:14;;;;;;;20.73;9.50;;;;;;;-145.18;100.00;60484.78;5021611;28;20030;-75
2021/09/18 01:45:40;;;;;;;21.40;9.37;;;;;;;-145.18;100.00;60484.78;5021595;28;20351;-75
2021/09/18 01:48:08;;;;;;;19.43;9.83;;;;;;;-145.18;100.00;60484.78;5021571;28;20509;-76
2021/09/18 01:50:47;;;;;;;22.33;10.50;;;;;;;-145.18;100.00;60484.78;5021774;28;20380;-75
2021/09/18 01:53:15;;;;;;;20.90;9.90;;;;;;;-145.18;100.00;60484.78;5021681;28;20029;-76
2021/09/18 01:55:41;;;;;;;20.87;9.53;;;;;;;-145.18;100.00;60484.78;5021457;28;20032;-75
2021/09/18 01:58:06;;;;;;;21.63;9.17;;;;;;;-145.18;100.00;60484.78;5021530;28;20018;-75
2021/09/18 02:00:36;;;;;;;23.53;10.07;;;;;;;-145.18;100.00;60484.78;5020990;28;20056;-75
2021/09/18 02:03:02;;;;;;;24.63;10.60;;;;;;;-145.18;100.00;60484.78;5021028;28;20060;-75
2021/09/18 02:05:28;;;;;;;19.97;9.77;;;;;;;-145.18;100.00;60484.78;5020806;28;20049;-75
2021/09/18 02:07:55;;;;;;;19.37;9.47;;;;;;;-145.18;100.00;60484.78;5020483;28;20029;-74
2021/09/18 02:10:24;;;;;;;20.33;10.13;;;;;;;-145.18;100.00;60484.78;5021519;28;20281;-75
2021/09/18 02:12:50;;;;;;;24.10;11.03;;;;;;;-145.18;100.00;60484.78;5020916;28;20021;-75
2021/09/18 02:15:17;;;;;;;23.73;10.57;;;;;;;-145.18;100.00;60484.78;5021919;28;20091;-75
2021/09/18 02:17:43;;;;;;;19.97;9.07;;;;;;;-145.18;100.00;60484.78;5020552;28;20277;-75
2021/09/18 02:20:11;;;;;;;21.90;9.80;;;;;;;-145.18;100.00;60484.78;5021074;28;20112;-75
2021/09/18 02:22:37;;;;;;;19.37;9.90;;;;;;;-145.18;100.00;60484.78;5020789;28;20029;-74
2021/09/18 02:25:04;;;;;;;22.53;10.40;;;;;;;-145.18;100.00;60484.78;5020947;28;20031;-74
2021/09/18 02:27:30;;;;;;;23.37;10.60;;;;;;;-145.18;100.00;60484.78;5020283;28;20037;-75
2021/09/18 02:29:55;;;;;;;23.47;10.47;;;;;;;-145.18;100.00;60484.78;5021231;28;20108;-74
2021/09/18 02:32:21;;;;;;;22.40;9.80;;;;;;;-145.18;100.00;60484.78;5020476;28;20033;-74
2021/09/18 02:34:46;;;;;;;20.23;9.20;;;;;;;-145.18;100.00;60484.78;5020903;28;20033;-75
2021/09/18 02:37:12;;;;;;;23.20;9.77;;;;;;;-145.18;100.00;60484.78;5020470;28;20116;-75
2021/09/18 02:39:38;;;;;;;20.43;10.77;;;;;;;-145.18;100.00;60484.78;5020093;28;20056;-74
2021/09/18 02:42:03;;;;;;;21.67;10.80;;;;;;;-145.18;100.00;60484.78;5020966;28;20416;-75
2021/09/18 02:44:29;;;;;;;26.80;10.93;;;;;;;-145.18;100.00;60484.78;5021157;28;20515;-75
2021/09/18 02:46:54;;;;;;;26.73;10.80;;;;;;;-145.18;100.00;60484.78;5020275;28;20145;-74
2021/09/18 02:49:20;;;;;;;29.03;12.90;;;;;;;-145.18;100.00;60484.78;5020343;28;20232;-75
2021/09/18 02:51:45;;;;;;;20.37;9.57;;;;;;;-145.18;100.00;60484.78;5021365;28;20033;-75
2021/09/18 02:54:11;;;;;;;20.27;8.90;;;;;;;-145.18;100.00;60484.78;5020784;28;20040;-75
2021/09/18 02:56:37;;;;;;;26.07;11.07;;;;;;;-145.18;100.00;60484.78;5020501;28;20566;-75
2021/09/18 02:59:02;;;;;;;26.13;11.30;;;;;;;-145.18;100.00;60484.78;5020144;28;20523;-75
2021/09/18 03:01:28;;;;;;;28.40;11.30;;;;;;;-145.18;100.00;60484.78;5020658;28;20029;-74
2021/09/18 03:03:53;;;;;;;27.70;11.93;;;;;;;-145.18;100.00;60484.78;5020070;28;20045;-75
2021/09/18 03:06:18;;;;;;;24.97;9.87;;;;;;;-145.18;100.00;60484.78;5020792;28;20563;-75
2021/09/18 03:08:44;;;;;;;23.73;10.00;;;;;;;-145.18;100.00;60484.78;5020034;28;20026;-75
2021/09/18 03:11:09;;;;;;;22.97;9.73;;;;;;;-145.18;100.00;60484.78;5020496;28;20495;-74
2021/09/18 03:13:36;;;;;;;22.33;10.47;;;;;;;-145.18;100.00;60484.78;5020234;28;20482;-75
2021/09/18 03:16:03;;;;;;;25.13;10.77;;;;;;;-145.18;100.00;60484.78;5020420;28;20511;-74
2021/09/18 03:18:28;;;;;;;24.10;10.50;;;;;;;-145.18;100.00;60484.78;5019599;28;20208;-75
2021/09/18 03:20:54;;;;;;;23.70;10.33;;;;;;;-145.18;100.00;60484.78;5020094;28;20033;-75
2021/09/18 03:23:20;;;;;;;22.83;10.33;;;;;;;-145.18;100.00;60484.78;5019934;28;20459;-74
2021/09/18 03:25:45;;;;;;;25.50;10.43;;;;;;;-145.18;100.00;60484.78;5020075;28;20068;-74
2021/09/18 03:28:11;;;;;;;24.73;11.33;;;;;;;-145.18;100.00;60484.78;5011134;28;20025;-75
2021/09/18 03:30:36;;;;;;;23.87;11.23;;;;;;;-145.18;100.00;60484.78;5019950;28;20033;-75
2021/09/18 03:33:02;;;;;;;30.67;13.27;;;;;;;-145.18;100.00;60484.78;5018054;28;20074;-75
2021/09/18 03:35:31;;;;;;;31.87;11.90;;;;;;;-145.18;100.00;60484.78;5019217;28;20033;-75
2021/09/18 03:37:59;;;;;;;26.40;11.70;;;;;;;-145.18;100.00;60484.78;5019373;28;20284;-75
2021/09/18 03:40:25;;;;;;;23.83;11.40;;;;;;;-145.18;100.00;60484.78;5019437;28;20044;-74
2021/09/18 03:42:50;;;;;;;24.97;11.37;;;;;;;-145.18;100.00;60484.78;5019545;28;20411;-75
2021/09/18 03:45:16;;;;;;;26.27;11.20;;;;;;;-145.18;100.00;60484.78;5019478;28;20063;-75
2021/09/18 03:47:41;;;;;;;26.10;11.60;;;;;;;-145.18;100.00;60484.78;5019704;28;20485;-75
2021/09/18 03:50:08;;;;;;;28.10;11.37;;;;;;;-145.18;100.00;60484.78;5018898;28;20507;-74
2021/09/18 03:52:36;;;;;;;25.97;10.87;;;;;;;-145.18;100.00;60484.78;5019279;28;20677;-75
2021/09/18 03:55:03;;;;;;;24.03;10.83;;;;;;;-145.18;100.00;60484.78;5019203;28;20048;-75
2021/09/18 03:57:28;;;;;;;29.97;12.37;;;;;;;-145.18;100.00;60484.78;5018746;28;20021;-75
2021/09/18 03:59:54;;;;;;;33.80;12.77;;;;;;;-145.18;100.00;60484.78;5018685;28;20488;-75
2021/09/18 04:02:19;;;;;;;30.03;12.60;;;;;;;-145.18;100.00;60484.78;5019484;28;20036;-75
2021/09/18 04:04:45;;;;;;;25.80;12.23;;;;;;;-145.18;100.00;60484.78;5018820;28;20428;-74
2021/09/18 04:07:10;;;;;;;25.97;12.07;;;;;;;-145.18;100.00;60484.78;5018776;28;20541;-75
2021/09/18 04:09:36;;;;;;;29.30;12.97;;;;;;;-145.18;100.00;60484.78;5019272;28;20108;-75
2021/09/18 04:12:02;;;;;;;35.67;14.30;;;;;;;-145.18;100.00;60484.78;5018829;28;20041;-75
2021/09/18 04:14:28;;;;;;;30.10;13.47;;;;;;;-145.18;100.00;60484.78;5019332;28;20031;-75
2021/09/18 04:16:53;;;;;;;33.70;13.87;;;;;;;-145.18;100.00;60484.78;5018904;28;20082;-75
2021/09/18 04:19:19;;;;;;;31.50;12.93;;;;;;;-145.18;100.00;60484.78;5018563;28;20119;-75
2021/09/18 04:21:44;;;;;;;29.03;12.33;;;;;;;-145.18;100.00;60484.78;5018718;28;20029;-74
2021/09/18 04:24:10;;;;;;;28.00;13.03;;;;;;;-145.18;100.00;60484.78;5018455;28;20047;-74
2021/09/18 04:26:35;;;;;;;33.97;13.37;;;;;;;-145.18;100.00;60484.78;5018915;28;20280;-76
2021/09/18 04:29:01;;;;;;;31.10;13.03;;;;;;;-145.18;100.00;60484.78;5016474;28;20168;-74
2021/09/18 04:31:27;;;;;;;36.70;14.63;;;;;;;-145.18;100.00;60484.78;5018543;28;20025;-75
2021/09/18 04:33:52;;;;;;;33.50;13.53;;;;;;;-145.18;100.00;60484.78;5018658;28;20043;-74
2021/09/18 04:36:18;;;;;;;26.77;11.90;;;;;;;-145.18;100.00;60484.78;5018773;28;20076;-75
2021/09/18 04:38:44;;;;;;;28.03;11.60;;;;;;;-145.18;100.00;60484.78;5018527;28;20484;-75
2021/09/18 04:41:10;;;;;;;25.23;11.37;;;;;;;-145.18;100.00;60484.78;5018558;28;20025;-75
2021/09/18 04:43:36;;;;;;;27.73;12.10;;;;;;;-145.18;100.00;60484.78;5018506;28;20037;-75
2021/09/18 04:46:02;;;;;;;30.77;12.37;;;;;;;-145.18;100.00;60484.78;5018089;28;20673;-74
2021/09/18 04:48:27;;;;;;;29.03;12.70;;;;;;;-145.18;100.00;60484.78;5010852;28;20202;-74
2021/09/18 04:50:53;;;;;;;29.03;12.40;;;;;;;-145.18;100.00;60484.78;5018279;28;20029;-74
2021/09/18 04:53:19;;;;;;;37.77;12.50;;;;;;;-145.18;100.00;60484.78;5018040;28;20048;-75
2021/09/18 04:55:44;;;;;;;26.67;11.97;;;;;;;-145.18;100.00;60484.78;5014826;28;20037;-75
2021/09/18 04:58:11;;;;;;;27.37;12.40;;;;;;;-145.18;100.00;60484.78;5015875;28;20021;-75
2021/09/18 05:00:36;;;;;;;21.30;10.27;;;;;;;-145.18;100.00;60484.78;5018881;28;20041;-75
2021/09/18 05:03:02;;;;;;;23.77;11.37;;;;;;;-145.18;100.00;60484.78;5018055;28;20034;-75
2021/09/18 05:05:27;;;;;;;30.40;11.77;;;;;;;-145.18;100.00;60484.78;5018580;28;20115;-75
2021/09/18 05:07:53;;;;;;;26.07;11.93;;;;;;;-145.18;100.00;60484.78;5018398;28;20471;-75
2021/09/18 05:10:18;;;;;;;26.93;12.33;;;;;;;-145.18;100.00;60484.78;5018571;28;20217;-75
2021/09/18 05:12:44;;;;;;;27.33;12.07;;;;;;;-145.18;100.00;60484.78;5017967;28;20033;-75
2021/09/18 05:15:09;;;;;;;29.30;11.77;;;;;;;-145.18;100.00;60484.78;5018626;28;20099;-75
2021/09/18 05:17:35;;;;;;;23.13;11.37;;;;;;;-145.18;100.00;60484.78;5018171;28;20248;-75
2021/09/18 05:20:01;;;;;;;26.93;12.50;;;;;;;-145.18;100.00;60484.78;5018743;28;20037;-75
2021/09/18 05:22:26;;;;;;;29.23;13.27;;;;;;;-145.18;100.00;60484.78;5017610;28;20037;-75
2021/09/18 05:24:52;;;;;;;25.57;12.83;;;;;;;-145.18;100.00;60484.78;5018388;28;20056;-75
2021/09/18 05:27:18;;;;;;;29.60;13.77;;;;;;;-145.18;100.00;60484.78;5018194;28;20038;-75
2021/09/18 05:29:44;;;;;;;33.60;14.10;;;;;;;-145.18;100.00;60484.78;5018064;28;20267;-74
2021/09/18 05:32:14;;;;;;;30.97;14.50;;;;;;;-145.18;100.00;60484.78;5018630;28;20037;-74
2021/09/18 05:34:40;;;;;;;30.53;14.00;;;;;;;-145.18;100.00;60484.78;5017671;28;20236;-74
2021/09/18 05:37:05;;;;;;;32.30;13.77;;;;;;;-145.18;100.00;60484.78;5016742;28;20234;-74
2021/09/18 05:39:31;;;;;;;34.37;14.80;;;;;;;-145.18;100.00;60484.78;5018396;28;20484;-74
2021/09/18 05:41:57;;;;;;;36.43;15.20;;;;;;;-145.18;100.00;60484.78;5017977;28;20033;-74
2021/09/18 05:44:23;;;;;;;22.67;12.03;;;;;;;-145.18;100.00;60484.78;5017957;28;20520;-73
2021/09/18 05:46:48;;;;;;;23.80;12.60;;;;;;;-145.18;100.00;60484.78;5018245;28;20208;-74
2021/09/18 05:49:14;;;;;;;26.53;13.90;;;;;;;-145.18;100.00;60484.78;5018237;28;20365;-72
2021/09/18 05:51:40;;;;;;;21.07;12.27;;;;;;;-145.18;100.00;60484.78;5018385;28;20038;-73
2021/09/18 05:54:05;;;;;;;23.43;12.13;;;;;;;-145.18;100.00;60484.78;5017192;28;20435;-73
2021/09/18 05:56:31;;;;;;;20.43;11.63;;;;;;;-145.18;100.00;60484.78;5017961;28;20508;-74
2021/09/18 05:58:56;;;;;;;17.83;10.80;;;;;;;-145.18;100.00;60484.78;5019525;28;20037;-73
2021/09/18 06:01:22;;;;;;;22.23;12.13;;;;;;;-145.18;100.00;60484.78;5021557;28;20025;-73
2021/09/18 06:03:48;;;;;;;18.07;11.30;;;;;;;-145.18;100.00;60484.78;5020731;28;20041;-73
2021/09/18 06:06:14;;;;;;;19.93;10.30;;;;;;;-145.18;100.00;60484.78;5021877;28;20030;-74
2021/09/18 06:08:39;;;;;;;11.67;7.73;;;;;;;-145.18;100.00;60484.78;5021295;28;20495;-74
2021/09/18 06:11:05;;;;;;;9.73;6.27;;;;;;;-145.18;100.00;60484.78;5021206;28;20036;-74
2021/09/18 06:13:30;;;;;;;8.50;5.00;;;;;;;-145.18;100.00;60484.78;5020620;28;20458;-73
2021/09/18 06:15:56;;;;;;;7.93;4.30;;;;;;;-145.18;100.00;60484.78;5020927;28;20029;-74
2021/09/18 06:18:22;;;;;;;6.27;3.90;;;;;;;-145.18;100.00;60484.78;5020595;28;20029;-73
2021/09/18 06:20:47;;;;;;;7.77;3.43;;;;;;;-145.18;100.00;60484.78;5021125;28;20103;-75
2021/09/18 06:23:13;;;;;;;5.90;3.60;;;;;;;-145.18;100.00;60484.78;5020469;28;20029;-75
2021/09/18 06:25:38;;;;;;;8.63;3.50;;;;;;;-145.18;100.00;60484.78;5020670;28;20037;-74
2021/09/18 06:28:04;;;;;;;9.23;3.57;;;;;;;-145.18;100.00;60484.78;5021010;28;20400;-74
2021/09/18 06:30:29;;;;;;;7.90;3.53;;;;;;;-145.18;100.00;60484.78;5021300;28;20491;-75
2021/09/18 06:32:55;;;;;;;13.30;3.47;;;;;;;-145.18;100.00;60484.78;5020605;28;20229;-75
2021/09/18 06:35:21;;;;;;;9.43;2.80;;;;;;;-145.18;100.00;60484.78;5020874;28;20030;-75
2021/09/18 06:37:48;;;;;;;5.70;2.50;;;;;;;-145.18;100.00;60484.78;5020843;28;20574;-74
2021/09/18 06:40:16;;;;;;;3.63;2.20;;;;;;;-145.18;100.00;60484.78;5021109;28;20041;-75
2021/09/18 06:42:42;;;;;;;6.10;2.60;;;;;;;-145.18;100.00;60484.78;5020868;28;20060;-74
2021/09/18 06:45:08;;;;;;;4.00;2.37;;;;;;;-145.18;100.00;60484.78;5019999;28;20033;-75
2021/09/18 06:47:34;;;;;;;5.30;2.80;;;;;;;-145.18;100.00;60484.78;5019491;28;20029;-76
2021/09/18 06:50:00;;;;;;;5.17;2.43;;;;;;;-145.18;100.00;60484.78;5018905;28;20507;-75
2021/09/18 06:52:25;;;;;;;4.63;2.77;;;;;;;-145.18;100.00;60484.78;5018199;28;20037;-75
2021/09/18 06:54:51;;;;;;;5.73;2.93;;;;;;;-145.18;100.00;60484.78;5019221;28;20021;-74
2021/09/18 06:57:16;;;;;;;4.43;2.70;;;;;;;-145.18;100.00;60484.78;5018561;28;20171;-75
2021/09/18 06:59:42;;;;;;;4.47;2.30;;;;;;;-145.18;100.00;60484.78;5019015;28;20221;-75
2021/09/18 07:02:08;;;;;;;6.73;1.93;;;;;;;-145.18;100.00;60484.78;5020408;28;20466;-75
2021/09/18 07:04:35;;;;;;;4.40;2.00;;;;;;;-145.18;100.00;60484.78;5020221;28;20085;-73
2021/09/18 07:07:02;;;;;;;3.47;1.90;;;;;;;-145.18;100.00;60484.78;5019159;28;20033;-74
2021/09/18 07:09:28;;;;;;;3.70;1.70;;;;;;;-145.18;100.00;60484.78;5020426;28;20553;-74
2021/09/18 07:11:54;;;;;;;5.65;1.70;;;;;;;-145.18;100.00;60484.78;5020025;28;20434;-75
2021/09/18 07:14:19;;;;;;;3.45;1.83;;;;;;;-145.18;100.00;60484.78;5020464;28;20030;-74
2021/09/18 07:16:45;;;;;;;2.90;1.70;;;;;;;-145.18;100.00;60484.78;5020172;28;20047;-74
2021/09/18 07:19:11;;;;;;;4.40;2.22;;;;;;;-145.18;100.00;60484.78;5020421;28;20495;-75
2021/09/18 07:21:37;;;;;;;3.78;2.22;;;;;;;-145.18;100.00;60484.78;5019887;28;20354;-75
2021/09/18 07:24:03;;;;;;;4.05;2.10;;;;;;;-145.18;100.00;60484.78;5020570;28;20518;-73
2021/09/18 07:26:29;;;;;;;5.97;2.85;;;;;;;-145.18;100.00;60484.78;5019132;28;20021;-74
2021/09/18 07:28:54;;;;;;;3.97;2.23;;;;;;;-145.18;100.00;60484.78;5019562;28;20026;-74
2021/09/18 07:31:20;;;;;;;7.97;2.73;;;;;;;-145.18;100.00;60484.78;5019985;28;20154;-74
2021/09/18 07:33:45;;;;;;;5.80;2.30;;;;;;;-145.18;100.00;60484.78;5019500;28;20574;-75
2021/09/18 07:36:15;;;;;;;4.67;2.40;;;;;;;-145.18;100.00;60484.78;5012272;28;20025;-74
2021/09/18 07:38:44;;;;;;;3.87;2.10;;;;;;;-145.18;100.00;60484.78;5018703;28;20075;-75
2021/09/18 07:41:10;;;;;;;5.97;2.33;;;;;;;-145.18;100.00;60484.78;5019541;28;20033;-75
2021/09/18 07:43:35;;;;;;;4.37;2.47;;;;;;;-145.18;100.00;60484.78;5018680;28;20271;-74
2021/09/18 07:46:02;;;;;;;5.00;2.60;;;;;;;-145.18;100.00;60484.78;5018014;28;20063;-73
2021/09/18 07:48:28;;;;;;;5.57;2.30;;;;;;;-145.18;100.00;60484.78;5018849;28;20057;-74
2021/09/18 07:50:54;;;;;;;5.10;2.80;;;;;;;-145.18;100.00;60484.78;5019754;28;20266;-73
2021/09/18 07:53:20;;;;;;;4.50;2.60;;;;;;;-145.18;100.00;60484.78;5019216;28;20469;-74
2021/09/18 07:55:45;;;;;;;4.20;2.47;;;;;;;-145.18;100.00;60484.78;5019421;28;20037;-73
2021/09/18 07:58:11;;;;;;;4.60;2.40;;;;;;;-145.18;100.00;60484.78;5018046;28;20456;-74
2021/09/18 08:00:36;;;;;;;4.00;2.53;;;;;;;-145.18;100.00;60484.78;5018766;28;20041;-74
2021/09/18 08:03:02;;;;;;;3.87;2.23;;;;;;;-145.18;100.00;60484.78;5019009;28;20087;-75
2021/09/18 08:05:28;;;;;;;4.43;2.40;;;;;;;-145.18;100.00;60484.78;5018718;28;20076;-75
2021/09/18 08:07:53;;;;;;;3.60;2.30;;;;;;;-145.18;100.00;60484.78;5018267;28;20029;-75
2021/09/18 08:10:19;;;;;;;9.73;2.40;;;;;;;-145.18;100.00;60484.78;5018523;28;20144;-74
2021/09/18 08:12:47;;;;;;;5.53;2.30;;;;;;;-145.18;100.00;60484.78;5018573;28;20052;-76
2021/09/18 08:15:13;;;;;;;6.32;2.20;;;;;;;-145.18;100.00;60484.78;5018422;28;20025;-75
2021/09/18 08:17:39;;;;;;;5.57;1.83;;;;;;;-145.18;100.00;60484.78;5019040;28;20026;-75
2021/09/18 08:20:06;;;;;;;4.22;1.92;;;;;;;-145.18;100.00;60484.78;5018314;28;20025;-74
2021/09/18 08:22:31;;;;;;;5.28;1.85;;;;;;;-145.18;100.00;60484.78;5017794;28;20485;-75
2021/09/18 08:24:57;;;;;;;4.55;1.92;;;;;;;-145.18;100.00;60484.78;5019057;28;20306;-76
2021/09/18 08:27:22;;;;;;;4.28;2.22;;;;;;;-145.18;100.00;60484.78;5018260;28;20084;-76
2021/09/18 08:29:48;;;;;;;6.03;2.40;;;;;;;-145.18;100.00;60484.78;5018363;28;20617;-74
2021/09/18 08:32:14;;;;;;;4.55;2.17;;;;;;;-145.18;100.00;60484.78;5018011;28;20033;-75
2021/09/18 08:34:39;;;;;;;4.45;2.00;;;;;;;-145.18;100.00;60484.78;5018904;28;20099;-75
2021/09/18 08:37:04;;;;;;;3.83;2.20;;;;;;;-145.18;100.00;60484.78;5018254;28;20096;-75
2021/09/18 08:39:35;;;;;;;4.47;2.40;;;;;;;-145.18;100.00;60484.78;5018885;28;20280;-74
2021/09/18 08:42:00;;;;;;;5.03;2.20;;;;;;;-145.18;100.00;60484.78;5018514;28;20446;-75
2021/09/18 08:44:26;;;;;;;5.80;2.47;;;;;;;-145.18;100.00;60484.78;5018653;28;20029;-75
2021/09/18 08:46:52;;;;;;;6.80;2.40;;;;;;;-145.18;100.00;60484.78;5018517;28;20523;-75
2021/09/18 08:49:18;;;;;;;4.32;2.40;;;;;;;-145.18;100.00;60484.78;5007643;28;20037;-75
2021/09/18 08:51:44;;;;;;;5.43;2.63;;;;;;;-145.18;100.00;60484.78;5016968;28;20033;-74
2021/09/18 08:54:10;;;;;;;6.30;2.58;;;;;;;-145.18;100.00;60484.78;5018331;28;20025;-74
2021/09/18 08:56:44;;;;;;;7.25;2.40;;;;;;;-145.18;100.00;60484.78;5018528;28;20053;-74
2021/09/18 08:59:09;;;;;;;5.55;2.30;;;;;;;-145.18;100.00;60484.78;5018258;28;20032;-75
2021/09/18 09:01:35;;;;;;;4.38;2.30;;;;;;;-145.18;100.00;60484.78;5017366;28;20033;-74
2021/09/18 09:04:04;;;;;;;4.75;2.10;;;;;;;-145.18;100.00;60484.78;5017690;28;20080;-74
2021/09/18 09:06:43;;;;;;;7.25;2.65;;;;;;;-145.18;100.00;60484.78;5007177;28;20025;-75
2021/09/18 09:09:10;;;;;;;6.95;2.40;;;;;;;-145.18;100.00;60484.78;5015937;28;20052;-74
2021/09/18 09:11:36;;;;;;;4.18;2.10;;;;;;;-145.18;100.00;60484.78;5017566;28;20404;-73
2021/09/18 09:14:08;;;;;;;3.22;1.98;;;;;;;-145.18;100.00;60484.78;5018159;28;20040;-73
2021/09/18 09:16:36;;;;;;;4.75;2.10;;;;;;;-145.18;100.00;60484.78;5018235;28;20033;-73
2021/09/18 09:19:16;;;;;;;3.50;1.80;;;;;;;-145.18;100.00;60484.78;5018174;28;20030;-73
2021/09/18 09:21:50;;;;;;;3.05;1.58;;;;;;;-145.18;100.00;60484.78;5009929;28;20048;-74
2021/09/18 09:24:18;;;;;;;4.43;1.90;;;;;;;-145.18;100.00;60484.78;5018210;28;20025;-73
2021/09/18 09:27:20;;;;;;;3.75;1.52;;;;;;;-145.18;100.00;60484.78;5017420;28;20232;-74
2021/09/18 09:29:54;;;;;;;2.58;1.30;;;;;;;-145.18;100.00;60484.78;5009597;28;20029;-74
2021/09/18 09:32:46;;;;;;;3.50;1.30;;;;;;;-145.18;100.00;60484.78;5017874;28;20597;-73
2021/09/18 09:35:14;;;;;;;3.20;1.60;;;;;;;-145.18;100.00;60484.78;5017964;28;20034;-74
2021/09/18 09:37:54;;;;;;;3.35;1.30;;;;;;;-145.18;100.00;60484.78;5022045;28;20430;-75
2021/09/18 09:40:42;;;;;;;2.65;1.45;;;;;;;-145.18;100.00;60484.78;5021219;28;20030;-74
2021/09/18 09:43:10;;;;;;;2.60;1.30;;;;;;;-145.18;100.00;60484.78;5021865;28;20460;-75
2021/09/18 09:45:36;;;;;;;4.50;1.48;;;;;;;-145.18;100.00;60484.78;5022085;28;20116;-75
2021/09/18 09:48:13;;;;;;;3.97;1.50;;;;;;;-145.18;100.00;60484.78;5019456;28;20033;-75
2021/09/18 09:50:41;;;;;;;3.95;1.30;;;;;;;-145.18;100.00;60484.78;5022075;28;20025;-75
2021/09/18 09:53:23;;;;;;;5.45;1.50;;;;;;;-145.18;100.00;60484.78;5021387;28;20041;-74
2021/09/18 09:55:49;;;;;;;4.70;1.48;;;;;;;-145.18;100.00;60484.78;5020736;28;20364;-75
2021/09/18 09:58:15;;;;;;;4.53;1.50;;;;;;;-145.18;100.00;60484.78;5021307;28;20111;-75
2021/09/18 10:00:42;;;;;;;3.10;1.33;;;;;;;-145.18;100.00;60484.78;5021739;28;20091;-75
2021/09/18 10:03:09;;;;;;;3.17;1.52;;;;;;;-145.18;100.00;60484.78;5020358;28;20209;-75
2021/09/18 10:05:36;;;;;;;4.95;1.42;;;;;;;-145.18;100.00;60484.78;5021273;28;20041;-75
2021/09/18 10:08:02;;;;;;;2.92;1.30;;;;;;;-145.18;100.00;60484.78;5020664;28;20026;-74
2021/09/18 10:10:28;;;;;;;5.07;1.70;;;;;;;-145.18;100.00;60484.78;5015008;28;20029;-75
2021/09/18 10:12:56;;;;;;;4.43;1.60;;;;;;;-145.18;100.00;60484.78;5020946;28;20367;-75
2021/09/18 10:15:25;;;;;;;3.90;1.70;;;;;;;-145.18;100.00;60484.78;5021143;28;20026;-75
2021/09/18 10:17:52;;;;;;;3.22;1.52;;;;;;;-145.18;100.00;60484.78;5020758;28;20120;-76
2021/09/18 10:23:14;;;;;;;4.43;2.03;;;;;;;-145.18;100.00;60484.78;4987422;28;20080;-75
2021/09/18 10:25:42;;;;;;;3.53;1.70;;;;;;;-145.18;100.00;60484.78;5021565;28;20133;-75
2021/09/18 10:28:44;;;;;;;4.97;1.95;;;;;;;-145.18;100.00;60484.78;5020916;28;20275;-76
2021/09/18 10:31:21;;;;;;;6.45;1.80;;;;;;;-145.18;100.00;60484.78;5021253;28;20202;-75
2021/09/18 10:33:49;;;;;;;4.90;1.88;;;;;;;-145.18;100.00;60484.78;5020283;28;20202;-75
2021/09/18 10:36:42;;;;;;;4.88;1.92;;;;;;;-145.18;100.00;60484.78;5021184;28;20029;-75
2021/09/18 10:39:18;;;;;;;;;;;;;;;-145.18;100.00;60484.78;5018700;28;20060;-75
2021/09/18 10:41:55;;;;;;;5.10;1.90;;;;;;;-145.18;100.00;60484.78;5019512;28;20345;-76
2021/09/18 10:44:23;;;;;;;4.47;1.85;;;;;;;-145.18;100.00;60484.78;5019922;28;20037;-75
2021/09/18 10:46:59;;;;;;;3.78;1.80;;;;;;;-145.18;100.00;60484.78;5020723;28;20034;-74
2021/09/18 10:49:43;;;;;;;4.20;1.98;;;;;;;-145.18;100.00;60484.78;5020413;28;20029;-74
2021/09/18 10:52:24;;;;;;;3.20;1.67;;;;;;;-145.18;100.00;60484.78;5020451;28;20025;-75
2021/09/18 10:55:22;;;;;;;3.88;1.90;;;;;;;-145.18;100.00;60484.78;5014059;28;20025;-74
2021/09/18 10:58:08;;;;;;;3.65;2.10;;;;;;;-145.18;100.00;60484.78;4990390;28;20038;-74
2021/09/18 11:00:38;;;;;;;3.28;1.73;;;;;;;-145.18;100.00;60484.78;5016496;28;20457;-74
2021/09/18 11:03:03;;;;;;;4.28;2.20;;;;;;;-145.18;100.00;60484.78;5020200;28;20033;-74
2021/09/18 11:05:44;;;;;;;4.82;2.42;;;;;;;-145.18;100.00;60484.78;5018893;28;20609;-74